sensor_id;sensor_type;location;lat;lon;timestamp;temperature;humidity
40077;DHT22;25777;47.824;18.982;2022-12-07T00:01:26;3.50;99.90
40077;DHT22;25777;47.824;18.982;2022-12-07T00:03:54;3.50;99.90
40077;DHT22;25777;47.824;18.982;2022-12-07T00:06:23;3.50;99.90
40077;DHT22;25777;47.824;18.982;2022-12-07T00:08:49;3.50;99.90
40077;DHT22;25777;47.824;18.982;2022-12-07T00:11:20;3.50;99.90
40077;DHT22;25777;47.824;18.982;2022-12-07T00:13:47;3.50;99.90
40077;DHT22;25777;47.824;18.982;2022-12-07T00:16:18;3.40;99.90
40077;DHT22;25777;47.824;18.982;2022-12-07T00:18:45;3.30;99.90
40077;DHT22;25777;47.824;18.982;2022-12-07T00:21:14;3.20;99.90
40077;DHT22;25777;47.824;18.982;2022-12-07T00:23:41;3.10;99.90
40077;DHT22;25777;47.824;18.982;2022-12-07T00:26:13;3.10;99.90
40077;DHT22;25777;47.824;18.982;2022-12-07T00:28:39;3.00;99.90
40077;DHT22;25777;47.824;18.982;2022-12-07T00:31:10;3.00;99.90
40077;DHT22;25777;47.824;18.982;2022-12-07T00:33:38;3.00;99.90
40077;DHT22;25777;47.824;18.982;2022-12-07T00:36:07;2.90;99.90
40077;DHT22;25777;47.824;18.982;2022-12-07T00:38:35;2.90;99.90
40077;DHT22;25777;47.824;18.982;2022-12-07T00:41:03;3.00;99.90
40077;DHT22;25777;47.824;18.982;2022-12-07T00:43:30;3.00;99.90
40077;DHT22;25777;47.824;18.982;2022-12-07T00:45:57;3.00;99.90
40077;DHT22;25777;47.824;18.982;2022-12-07T00:48:23;3.00;99.90
40077;DHT22;25777;47.824;18.982;2022-12-07T00:50:49;3.10;99.90
40077;DHT22;25777;47.824;18.982;2022-12-07T00:53:16;3.10;99.90
40077;DHT22;25777;47.824;18.982;2022-12-07T00:55:42;3.10;99.90
40077;DHT22;25777;47.824;18.982;2022-12-07T00:58:09;3.10;99.90
40077;DHT22;25777;47.824;18.982;2022-12-07T01:00:36;3.10;99.90
40077;DHT22;25777;47.824;18.982;2022-12-07T01:03:04;3.20;99.90
40077;DHT22;25777;47.824;18.982;2022-12-07T01:05:30;3.20;99.90
40077;DHT22;25777;47.824;18.982;2022-12-07T01:07:56;3.10;99.90
40077;DHT22;25777;47.824;18.982;2022-12-07T01:10:22;3.00;99.90
40077;DHT22;25777;47.824;18.982;2022-12-07T01:12:48;2.90;99.90
40077;DHT22;25777;47.824;18.982;2022-12-07T01:15:14;3.00;99.90
40077;DHT22;25777;47.824;18.982;2022-12-07T01:17:40;3.00;99.90
40077;DHT22;25777;47.824;18.982;2022-12-07T01:20:07;2.90;99.90
40077;DHT22;25777;47.824;18.982;2022-12-07T01:22:42;2.90;99.90
40077;DHT22;25777;47.824;18.982;2022-12-07T01:25:10;2.80;99.90
40077;DHT22;25777;47.824;18.982;2022-12-07T01:27:36;2.80;99.90
40077;DHT22;25777;47.824;18.982;2022-12-07T01:30:05;2.80;99.90
40077;DHT22;25777;47.824;18.982;2022-12-07T01:32:31;2.90;99.90
40077;DHT22;25777;47.824;18.982;2022-12-07T01:34:57;2.90;99.90
40077;DHT22;25777;47.824;18.982;2022-12-07T01:37:23;2.90;99.90
40077;DHT22;25777;47.824;18.982;2022-12-07T01:39:52;2.90;99.90
40077;DHT22;25777;47.824;18.982;2022-12-07T01:42:19;3.00;99.90
40077;DHT22;25777;47.824;18.982;2022-12-07T01:47:54;2.90;99.90
40077;DHT22;25777;47.824;18.982;2022-12-07T01:50:21;3.00;99.90
40077;DHT22;25777;47.824;18.982;2022-12-07T01:52:50;3.00;99.90
40077;DHT22;25777;47.824;18.982;2022-12-07T01:55:19;3.00;99.90
40077;DHT22;25777;47.824;18.982;2022-12-07T01:57:49;3.00;99.90
40077;DHT22;25777;47.824;18.982;2022-12-07T02:00:15;3.00;99.90
40077;DHT22;25777;47.824;18.982;2022-12-07T02:02:52;3.00;99.90
40077;DHT22;25777;47.824;18.982;2022-12-07T02:05:19;3.10;99.90
40077;DHT22;25777;47.824;18.982;2022-12-07T02:07:47;3.20;99.90
40077;DHT22;25777;47.824;18.982;2022-12-07T02:12:49;3.30;99.90
40077;DHT22;25777;47.824;18.982;2022-12-07T02:15:19;3.20;99.90
40077;DHT22;25777;47.824;18.982;2022-12-07T02:18:06;3.30;99.90
40077;DHT22;25777;47.824;18.982;2022-12-07T02:28:35;3.40;99.90
40077;DHT22;25777;47.824;18.982;2022-12-07T02:31:06;3.40;99.90
40077;DHT22;25777;47.824;18.982;2022-12-07T02:33:54;3.40;99.90
40077;DHT22;25777;47.824;18.982;2022-12-07T02:36:28;3.40;99.90
40077;DHT22;25777;47.824;18.982;2022-12-07T02:39:00;3.40;99.90
40077;DHT22;25777;47.824;18.982;2022-12-07T02:41:43;3.40;99.90
40077;DHT22;25777;47.824;18.982;2022-12-07T02:44:13;3.30;99.90
40077;DHT22;25777;47.824;18.982;2022-12-07T02:46:43;3.30;99.90
40077;DHT22;25777;47.824;18.982;2022-12-07T02:49:10;3.40;99.90
40077;DHT22;25777;47.824;18.982;2022-12-07T02:51:43;3.40;99.90
40077;DHT22;25777;47.824;18.982;2022-12-07T02:54:14;3.40;99.90
40077;DHT22;25777;47.824;18.982;2022-12-07T02:56:54;3.30;99.90
40077;DHT22;25777;47.824;18.982;2022-12-07T03:02:49;3.40;99.90
40077;DHT22;25777;47.824;18.982;2022-12-07T03:10:48;3.40;99.90
40077;DHT22;25777;47.824;18.982;2022-12-07T03:14:08;3.40;99.90
40077;DHT22;25777;47.824;18.982;2022-12-07T03:16:27;3.50;99.90
40077;DHT22;25777;47.824;18.982;2022-12-07T03:19:00;3.40;99.90
40077;DHT22;25777;47.824;18.982;2022-12-07T03:21:30;3.40;99.90
40077;DHT22;25777;47.824;18.982;2022-12-07T03:23:59;3.40;99.90
40077;DHT22;25777;47.824;18.982;2022-12-07T03:26:35;3.50;99.90
40077;DHT22;25777;47.824;18.982;2022-12-07T03:29:07;3.50;99.90
40077;DHT22;25777;47.824;18.982;2022-12-07T03:31:39;3.50;99.90
40077;DHT22;25777;47.824;18.982;2022-12-07T03:36:49;3.60;99.90
40077;DHT22;25777;47.824;18.982;2022-12-07T03:42:13;3.60;99.90
40077;DHT22;25777;47.824;18.982;2022-12-07T03:44:41;3.50;99.90
40077;DHT22;25777;47.824;18.982;2022-12-07T03:50:23;3.60;99.90
40077;DHT22;25777;47.824;18.982;2022-12-07T03:53:07;3.60;99.90
40077;DHT22;25777;47.824;18.982;2022-12-07T03:55:41;3.60;99.90
40077;DHT22;25777;47.824;18.982;2022-12-07T03:58:15;3.70;99.90
40077;DHT22;25777;47.824;18.982;2022-12-07T04:00:42;3.70;99.90
40077;DHT22;25777;47.824;18.982;2022-12-07T04:03:08;3.70;99.90
40077;DHT22;25777;47.824;18.982;2022-12-07T04:05:35;3.70;99.90
40077;DHT22;25777;47.824;18.982;2022-12-07T04:08:01;3.70;99.90
40077;DHT22;25777;47.824;18.982;2022-12-07T04:10:26;3.70;99.90
40077;DHT22;25777;47.824;18.982;2022-12-07T04:12:52;3.70;99.90
40077;DHT22;25777;47.824;18.982;2022-12-07T04:15:18;3.80;99.90
40077;DHT22;25777;47.824;18.982;2022-12-07T04:17:44;3.80;99.90
40077;DHT22;25777;47.824;18.982;2022-12-07T04:20:11;3.80;99.90
40077;DHT22;25777;47.824;18.982;2022-12-07T04:22:37;3.80;99.90
40077;DHT22;25777;47.824;18.982;2022-12-07T04:25:03;3.80;99.90
40077;DHT22;25777;47.824;18.982;2022-12-07T04:27:29;3.70;99.90
40077;DHT22;25777;47.824;18.982;2022-12-07T04:29:55;3.70;99.90
40077;DHT22;25777;47.824;18.982;2022-12-07T04:32:22;3.70;99.90
40077;DHT22;25777;47.824;18.982;2022-12-07T04:34:48;3.80;99.90
40077;DHT22;25777;47.824;18.982;2022-12-07T04:37:14;3.70;99.90
40077;DHT22;25777;47.824;18.982;2022-12-07T04:39:40;3.60;99.90
40077;DHT22;25777;47.824;18.982;2022-12-07T04:42:07;3.60;99.90
40077;DHT22;25777;47.824;18.982;2022-12-07T04:44:33;3.60;99.90
40077;DHT22;25777;47.824;18.982;2022-12-07T04:46:58;3.60;99.90
40077;DHT22;25777;47.824;18.982;2022-12-07T04:49:25;3.60;99.90
40077;DHT22;25777;47.824;18.982;2022-12-07T04:51:51;3.70;99.90
40077;DHT22;25777;47.824;18.982;2022-12-07T04:54:17;3.70;99.90
40077;DHT22;25777;47.824;18.982;2022-12-07T04:56:43;3.70;99.90
40077;DHT22;25777;47.824;18.982;2022-12-07T04:59:14;3.70;99.90
40077;DHT22;25777;47.824;18.982;2022-12-07T05:01:40;3.70;99.90
40077;DHT22;25777;47.824;18.982;2022-12-07T05:04:07;3.70;99.90
40077;DHT22;25777;47.824;18.982;2022-12-07T05:06:33;3.70;99.90
40077;DHT22;25777;47.824;18.982;2022-12-07T05:08:59;3.70;99.90
40077;DHT22;25777;47.824;18.982;2022-12-07T05:11:25;3.80;99.90
40077;DHT22;25777;47.824;18.982;2022-12-07T05:14:05;3.80;99.90
40077;DHT22;25777;47.824;18.982;2022-12-07T05:16:32;3.80;99.90
40077;DHT22;25777;47.824;18.982;2022-12-07T05:18:58;3.70;99.90
40077;DHT22;25777;47.824;18.982;2022-12-07T05:21:24;3.70;99.90
40077;DHT22;25777;47.824;18.982;2022-12-07T05:23:50;3.80;99.90
40077;DHT22;25777;47.824;18.982;2022-12-07T05:26:17;3.80;99.90
40077;DHT22;25777;47.824;18.982;2022-12-07T05:28:43;3.80;99.90
40077;DHT22;25777;47.824;18.982;2022-12-07T05:31:09;3.80;99.90
40077;DHT22;25777;47.824;18.982;2022-12-07T05:33:35;3.80;99.90
40077;DHT22;25777;47.824;18.982;2022-12-07T05:36:01;3.80;99.90
40077;DHT22;25777;47.824;18.982;2022-12-07T05:38:34;3.80;99.90
40077;DHT22;25777;47.824;18.982;2022-12-07T05:41:05;3.80;99.90
40077;DHT22;25777;47.824;18.982;2022-12-07T05:43:31;3.80;99.90
40077;DHT22;25777;47.824;18.982;2022-12-07T05:45:58;3.70;99.90
40077;DHT22;25777;47.824;18.982;2022-12-07T05:48:24;3.70;99.90
40077;DHT22;25777;47.824;18.982;2022-12-07T05:50:51;3.70;99.90
40077;DHT22;25777;47.824;18.982;2022-12-07T05:53:17;3.70;99.90
40077;DHT22;25777;47.824;18.982;2022-12-07T05:55:43;3.70;99.90
40077;DHT22;25777;47.824;18.982;2022-12-07T05:58:10;3.70;99.90
40077;DHT22;25777;47.824;18.982;2022-12-07T06:00:55;3.70;99.90
40077;DHT22;25777;47.824;18.982;2022-12-07T06:03:22;3.70;99.90
40077;DHT22;25777;47.824;18.982;2022-12-07T06:05:48;3.70;99.90
40077;DHT22;25777;47.824;18.982;2022-12-07T06:08:14;3.70;99.90
40077;DHT22;25777;47.824;18.982;2022-12-07T06:10:41;3.70;99.90
40077;DHT22;25777;47.824;18.982;2022-12-07T06:13:10;3.70;99.90
40077;DHT22;25777;47.824;18.982;2022-12-07T06:15:36;3.70;99.90
40077;DHT22;25777;47.824;18.982;2022-12-07T06:18:03;3.70;99.90
40077;DHT22;25777;47.824;18.982;2022-12-07T06:20:28;3.70;99.90
40077;DHT22;25777;47.824;18.982;2022-12-07T06:22:54;3.70;99.90
40077;DHT22;25777;47.824;18.982;2022-12-07T06:25:20;3.60;99.90
40077;DHT22;25777;47.824;18.982;2022-12-07T06:27:46;3.70;99.90
40077;DHT22;25777;47.824;18.982;2022-12-07T06:30:13;3.70;99.90
40077;DHT22;25777;47.824;18.982;2022-12-07T06:32:39;3.70;99.90
40077;DHT22;25777;47.824;18.982;2022-12-07T06:35:05;3.70;99.90
40077;DHT22;25777;47.824;18.982;2022-12-07T06:37:31;3.70;99.90
40077;DHT22;25777;47.824;18.982;2022-12-07T06:39:57;3.70;99.90
40077;DHT22;25777;47.824;18.982;2022-12-07T06:42:23;3.70;99.90
40077;DHT22;25777;47.824;18.982;2022-12-07T06:44:49;3.70;99.90
40077;DHT22;25777;47.824;18.982;2022-12-07T06:47:15;3.80;99.90
40077;DHT22;25777;47.824;18.982;2022-12-07T06:49:40;3.90;99.90
40077;DHT22;25777;47.824;18.982;2022-12-07T06:52:06;3.90;99.90
40077;DHT22;25777;47.824;18.982;2022-12-07T06:54:32;3.90;99.90
40077;DHT22;25777;47.824;18.982;2022-12-07T06:56:58;3.90;99.90
40077;DHT22;25777;47.824;18.982;2022-12-07T06:59:24;3.80;99.90
40077;DHT22;25777;47.824;18.982;2022-12-07T07:01:50;3.80;99.90
40077;DHT22;25777;47.824;18.982;2022-12-07T07:04:16;3.80;99.90
40077;DHT22;25777;47.824;18.982;2022-12-07T07:06:41;3.80;99.90
40077;DHT22;25777;47.824;18.982;2022-12-07T07:09:07;3.70;99.90
40077;DHT22;25777;47.824;18.982;2022-12-07T07:11:35;3.80;99.90
40077;DHT22;25777;47.824;18.982;2022-12-07T07:14:00;3.80;99.90
40077;DHT22;25777;47.824;18.982;2022-12-07T07:16:30;3.90;99.90
40077;DHT22;25777;47.824;18.982;2022-12-07T07:18:56;3.90;99.90
40077;DHT22;25777;47.824;18.982;2022-12-07T07:21:22;3.90;99.90
40077;DHT22;25777;47.824;18.982;2022-12-07T07:23:48;3.90;99.90
40077;DHT22;25777;47.824;18.982;2022-12-07T07:26:14;3.90;99.90
40077;DHT22;25777;47.824;18.982;2022-12-07T07:28:40;3.90;99.90
40077;DHT22;25777;47.824;18.982;2022-12-07T07:31:06;4.00;99.90
40077;DHT22;25777;47.824;18.982;2022-12-07T07:33:32;4.00;99.90
40077;DHT22;25777;47.824;18.982;2022-12-07T07:35:58;4.00;99.90
40077;DHT22;25777;47.824;18.982;2022-12-07T07:38:24;4.10;99.90
40077;DHT22;25777;47.824;18.982;2022-12-07T07:40:50;4.10;99.90
40077;DHT22;25777;47.824;18.982;2022-12-07T07:43:16;4.20;99.90
40077;DHT22;25777;47.824;18.982;2022-12-07T07:45:42;4.30;99.90
40077;DHT22;25777;47.824;18.982;2022-12-07T07:48:07;4.40;99.90
40077;DHT22;25777;47.824;18.982;2022-12-07T07:50:33;4.50;99.90
40077;DHT22;25777;47.824;18.982;2022-12-07T07:52:59;4.50;99.90
40077;DHT22;25777;47.824;18.982;2022-12-07T07:55:25;4.60;99.90
40077;DHT22;25777;47.824;18.982;2022-12-07T07:57:51;4.80;99.90
40077;DHT22;25777;47.824;18.982;2022-12-07T08:00:17;4.80;99.90
40077;DHT22;25777;47.824;18.982;2022-12-07T08:02:43;4.90;99.90
40077;DHT22;25777;47.824;18.982;2022-12-07T08:05:13;5.00;99.90
40077;DHT22;25777;47.824;18.982;2022-12-07T08:07:39;5.00;99.90
40077;DHT22;25777;47.824;18.982;2022-12-07T08:10:06;5.10;99.90
40077;DHT22;25777;47.824;18.982;2022-12-07T08:12:36;5.10;99.90
40077;DHT22;25777;47.824;18.982;2022-12-07T08:15:03;5.20;99.90
40077;DHT22;25777;47.824;18.982;2022-12-07T08:17:29;5.30;99.90
40077;DHT22;25777;47.824;18.982;2022-12-07T08:19:55;5.30;99.90
40077;DHT22;25777;47.824;18.982;2022-12-07T08:22:23;5.30;99.90
40077;DHT22;25777;47.824;18.982;2022-12-07T08:24:49;5.30;99.90
40077;DHT22;25777;47.824;18.982;2022-12-07T08:27:14;5.40;99.90
40077;DHT22;25777;47.824;18.982;2022-12-07T08:29:40;5.50;99.90
40077;DHT22;25777;47.824;18.982;2022-12-07T08:32:06;5.50;99.90
40077;DHT22;25777;47.824;18.982;2022-12-07T08:34:33;5.60;99.90
40077;DHT22;25777;47.824;18.982;2022-12-07T08:36:59;5.70;99.90
40077;DHT22;25777;47.824;18.982;2022-12-07T08:39:25;5.70;99.90
40077;DHT22;25777;47.824;18.982;2022-12-07T08:41:51;5.80;99.90
40077;DHT22;25777;47.824;18.982;2022-12-07T08:44:16;6.00;99.90
40077;DHT22;25777;47.824;18.982;2022-12-07T08:46:53;6.00;99.90
40077;DHT22;25777;47.824;18.982;2022-12-07T08:49:27;6.00;99.90
40077;DHT22;25777;47.824;18.982;2022-12-07T08:51:54;6.10;99.90
40077;DHT22;25777;47.824;18.982;2022-12-07T08:54:20;6.00;99.90
40077;DHT22;25777;47.824;18.982;2022-12-07T08:56:47;6.20;99.90
40077;DHT22;25777;47.824;18.982;2022-12-07T08:59:17;6.60;99.90
40077;DHT22;25777;47.824;18.982;2022-12-07T09:01:43;6.60;99.90
40077;DHT22;25777;47.824;18.982;2022-12-07T09:04:09;6.50;99.90
40077;DHT22;25777;47.824;18.982;2022-12-07T09:06:35;6.30;99.90
40077;DHT22;25777;47.824;18.982;2022-12-07T09:09:02;6.10;99.90
40077;DHT22;25777;47.824;18.982;2022-12-07T09:11:28;6.00;99.90
40077;DHT22;25777;47.824;18.982;2022-12-07T09:13:55;6.10;99.90
40077;DHT22;25777;47.824;18.982;2022-12-07T09:16:21;6.10;99.90
40077;DHT22;25777;47.824;18.982;2022-12-07T09:18:47;6.20;99.90
40077;DHT22;25777;47.824;18.982;2022-12-07T09:21:13;6.10;99.90
40077;DHT22;25777;47.824;18.982;2022-12-07T09:23:39;6.20;99.90
40077;DHT22;25777;47.824;18.982;2022-12-07T09:26:06;6.20;99.90
40077;DHT22;25777;47.824;18.982;2022-12-07T09:28:32;6.10;99.90
40077;DHT22;25777;47.824;18.982;2022-12-07T09:30:58;6.20;99.90
40077;DHT22;25777;47.824;18.982;2022-12-07T09:33:24;6.20;99.90
40077;DHT22;25777;47.824;18.982;2022-12-07T09:35:52;6.10;99.90
40077;DHT22;25777;47.824;18.982;2022-12-07T09:38:19;6.10;99.90
40077;DHT22;25777;47.824;18.982;2022-12-07T09:40:46;6.00;99.90
40077;DHT22;25777;47.824;18.982;2022-12-07T09:43:15;6.20;99.90
40077;DHT22;25777;47.824;18.982;2022-12-07T09:45:42;6.20;99.90
40077;DHT22;25777;47.824;18.982;2022-12-07T09:48:28;6.10;99.90
40077;DHT22;25777;47.824;18.982;2022-12-07T09:50:58;6.00;99.90
40077;DHT22;25777;47.824;18.982;2022-12-07T09:53:30;6.00;99.90
40077;DHT22;25777;47.824;18.982;2022-12-07T09:55:59;6.10;99.90
40077;DHT22;25777;47.824;18.982;2022-12-07T09:58:27;6.10;99.90
40077;DHT22;25777;47.824;18.982;2022-12-07T10:01:00;6.20;99.90
40077;DHT22;25777;47.824;18.982;2022-12-07T10:03:29;6.20;99.90
40077;DHT22;25777;47.824;18.982;2022-12-07T10:05:55;6.20;99.90
40077;DHT22;25777;47.824;18.982;2022-12-07T10:08:22;6.10;99.90
40077;DHT22;25777;47.824;18.982;2022-12-07T10:10:54;6.20;99.90
40077;DHT22;25777;47.824;18.982;2022-12-07T10:13:34;6.20;99.90
40077;DHT22;25777;47.824;18.982;2022-12-07T10:16:00;6.20;99.90
40077;DHT22;25777;47.824;18.982;2022-12-07T10:18:40;6.30;99.90
40077;DHT22;25777;47.824;18.982;2022-12-07T10:24:04;6.20;99.90
40077;DHT22;25777;47.824;18.982;2022-12-07T10:26:32;6.20;99.90
40077;DHT22;25777;47.824;18.982;2022-12-07T10:29:21;6.20;99.90
40077;DHT22;25777;47.824;18.982;2022-12-07T10:32:02;6.20;99.90
40077;DHT22;25777;47.824;18.982;2022-12-07T10:34:34;6.20;99.90
40077;DHT22;25777;47.824;18.982;2022-12-07T10:39:51;6.10;99.90
40077;DHT22;25777;47.824;18.982;2022-12-07T10:42:23;6.00;99.90
40077;DHT22;25777;47.824;18.982;2022-12-07T10:45:03;6.10;99.90
40077;DHT22;25777;47.824;18.982;2022-12-07T10:53:50;6.70;99.90
40077;DHT22;25777;47.824;18.982;2022-12-07T11:05:22;6.50;99.90
40077;DHT22;25777;47.824;18.982;2022-12-07T11:08:05;6.80;99.90
40077;DHT22;25777;47.824;18.982;2022-12-07T11:10:55;7.30;99.90
40077;DHT22;25777;47.824;18.982;2022-12-07T11:22:03;6.90;99.90
40077;DHT22;25777;47.824;18.982;2022-12-07T11:25:04;6.60;99.90
40077;DHT22;25777;47.824;18.982;2022-12-07T11:27:40;6.60;99.90
40077;DHT22;25777;47.824;18.982;2022-12-07T11:30:38;6.50;99.90
40077;DHT22;25777;47.824;18.982;2022-12-07T11:36:44;6.60;99.90
40077;DHT22;25777;47.824;18.982;2022-12-07T11:42:08;6.60;99.90
40077;DHT22;25777;47.824;18.982;2022-12-07T11:47:28;6.50;99.90
40077;DHT22;25777;47.824;18.982;2022-12-07T11:53:01;6.40;99.90
40077;DHT22;25777;47.824;18.982;2022-12-07T11:55:31;6.50;99.90
40077;DHT22;25777;47.824;18.982;2022-12-07T11:58:12;6.50;99.90
40077;DHT22;25777;47.824;18.982;2022-12-07T12:00:41;6.30;99.90
40077;DHT22;25777;47.824;18.982;2022-12-07T12:03:14;6.30;99.90
40077;DHT22;25777;47.824;18.982;2022-12-07T12:05:41;6.40;99.90
40077;DHT22;25777;47.824;18.982;2022-12-07T12:08:26;6.50;99.90
40077;DHT22;25777;47.824;18.982;2022-12-07T12:20:24;6.70;99.90
40077;DHT22;25777;47.824;18.982;2022-12-07T12:22:32;6.80;99.90
40077;DHT22;25777;47.824;18.982;2022-12-07T12:24:59;6.70;99.90
40077;DHT22;25777;47.824;18.982;2022-12-07T12:27:29;6.70;99.90
40077;DHT22;25777;47.824;18.982;2022-12-07T12:30:00;6.50;99.90
40077;DHT22;25777;47.824;18.982;2022-12-07T12:35:26;6.30;99.90
40077;DHT22;25777;47.824;18.982;2022-12-07T12:37:54;6.20;99.90
40077;DHT22;25777;47.824;18.982;2022-12-07T12:42:52;6.20;99.90
40077;DHT22;25777;47.824;18.982;2022-12-07T12:45:25;6.20;99.90
40077;DHT22;25777;47.824;18.982;2022-12-07T12:47:57;6.20;99.90
40077;DHT22;25777;47.824;18.982;2022-12-07T12:50:29;6.10;99.90
40077;DHT22;25777;47.824;18.982;2022-12-07T12:53:21;6.00;99.90
40077;DHT22;25777;47.824;18.982;2022-12-07T13:00:47;5.70;99.90
40077;DHT22;25777;47.824;18.982;2022-12-07T13:03:30;5.60;99.90
40077;DHT22;25777;47.824;18.982;2022-12-07T13:08:57;5.40;99.90
40077;DHT22;25777;47.824;18.982;2022-12-07T13:11:41;5.40;99.90
40077;DHT22;25777;47.824;18.982;2022-12-07T13:17:03;5.30;99.90
40077;DHT22;25777;47.824;18.982;2022-12-07T13:27:40;5.30;99.90
40077;DHT22;25777;47.824;18.982;2022-12-07T13:30:19;5.30;99.90
40077;DHT22;25777;47.824;18.982;2022-12-07T13:32:56;5.40;99.90
40077;DHT22;25777;47.824;18.982;2022-12-07T13:35:31;5.40;99.90
40077;DHT22;25777;47.824;18.982;2022-12-07T13:37:57;5.50;99.90
40077;DHT22;25777;47.824;18.982;2022-12-07T13:40:24;5.50;99.90
40077;DHT22;25777;47.824;18.982;2022-12-07T13:43:01;5.50;99.90
40077;DHT22;25777;47.824;18.982;2022-12-07T13:45:30;5.50;99.90
40077;DHT22;25777;47.824;18.982;2022-12-07T13:48:31;5.50;99.90
40077;DHT22;25777;47.824;18.982;2022-12-07T13:51:03;5.60;99.90
40077;DHT22;25777;47.824;18.982;2022-12-07T13:53:29;5.70;99.90
40077;DHT22;25777;47.824;18.982;2022-12-07T13:56:00;5.80;99.90
40077;DHT22;25777;47.824;18.982;2022-12-07T13:58:33;5.80;99.90
40077;DHT22;25777;47.824;18.982;2022-12-07T14:00:59;5.80;99.90
40077;DHT22;25777;47.824;18.982;2022-12-07T14:03:32;5.80;99.90
40077;DHT22;25777;47.824;18.982;2022-12-07T14:06:14;5.80;99.90
40077;DHT22;25777;47.824;18.982;2022-12-07T14:08:41;5.80;99.90
40077;DHT22;25777;47.824;18.982;2022-12-07T14:11:19;5.70;99.90
40077;DHT22;25777;47.824;18.982;2022-12-07T14:13:56;5.60;99.90
40077;DHT22;25777;47.824;18.982;2022-12-07T14:16:34;5.50;99.90
40077;DHT22;25777;47.824;18.982;2022-12-07T14:19:04;5.50;99.90
40077;DHT22;25777;47.824;18.982;2022-12-07T14:21:32;5.50;99.90
40077;DHT22;25777;47.824;18.982;2022-12-07T14:24:33;5.30;99.90
40077;DHT22;25777;47.824;18.982;2022-12-07T14:27:17;5.10;99.90
40077;DHT22;25777;47.824;18.982;2022-12-07T14:29:43;5.00;99.90
40077;DHT22;25777;47.824;18.982;2022-12-07T14:32:21;4.90;99.90
40077;DHT22;25777;47.824;18.982;2022-12-07T14:35:03;4.70;99.90
40077;DHT22;25777;47.824;18.982;2022-12-07T14:37:33;4.70;99.90
40077;DHT22;25777;47.824;18.982;2022-12-07T14:39:59;4.50;99.90
40077;DHT22;25777;47.824;18.982;2022-12-07T14:42:28;4.30;99.90
40077;DHT22;25777;47.824;18.982;2022-12-07T14:44:56;4.30;99.90
40077;DHT22;25777;47.824;18.982;2022-12-07T14:47:23;4.30;99.90
40077;DHT22;25777;47.824;18.982;2022-12-07T14:49:49;4.30;99.90
40077;DHT22;25777;47.824;18.982;2022-12-07T14:52:42;4.30;99.90
40077;DHT22;25777;47.824;18.982;2022-12-07T14:55:23;4.10;99.90
40077;DHT22;25777;47.824;18.982;2022-12-07T14:57:50;4.10;99.90
40077;DHT22;25777;47.824;18.982;2022-12-07T15:00:17;4.00;99.90
40077;DHT22;25777;47.824;18.982;2022-12-07T15:02:45;3.80;99.90
40077;DHT22;25777;47.824;18.982;2022-12-07T15:05:12;3.70;99.90
40077;DHT22;25777;47.824;18.982;2022-12-07T15:07:39;3.60;99.90
40077;DHT22;25777;47.824;18.982;2022-12-07T15:10:06;3.50;99.90
40077;DHT22;25777;47.824;18.982;2022-12-07T15:12:32;3.50;99.90
40077;DHT22;25777;47.824;18.982;2022-12-07T15:14:58;3.40;99.90
40077;DHT22;25777;47.824;18.982;2022-12-07T15:17:24;3.30;99.90
40077;DHT22;25777;47.824;18.982;2022-12-07T15:19:50;3.10;99.90
40077;DHT22;25777;47.824;18.982;2022-12-07T15:22:16;3.10;99.90
40077;DHT22;25777;47.824;18.982;2022-12-07T15:24:41;3.00;99.90
40077;DHT22;25777;47.824;18.982;2022-12-07T15:27:07;3.00;99.90
40077;DHT22;25777;47.824;18.982;2022-12-07T15:29:33;2.80;99.90
40077;DHT22;25777;47.824;18.982;2022-12-07T15:31:59;2.80;99.90
40077;DHT22;25777;47.824;18.982;2022-12-07T15:34:27;2.70;99.90
40077;DHT22;25777;47.824;18.982;2022-12-07T15:36:54;2.80;99.90
40077;DHT22;25777;47.824;18.982;2022-12-07T15:39:20;2.70;99.90
40077;DHT22;25777;47.824;18.982;2022-12-07T15:41:47;2.50;99.90
40077;DHT22;25777;47.824;18.982;2022-12-07T15:44:13;2.40;99.90
40077;DHT22;25777;47.824;18.982;2022-12-07T15:46:59;2.40;99.90
40077;DHT22;25777;47.824;18.982;2022-12-07T15:49:25;2.30;99.90
40077;DHT22;25777;47.824;18.982;2022-12-07T15:51:51;2.20;99.90
40077;DHT22;25777;47.824;18.982;2022-12-07T15:54:27;2.10;99.90
40077;DHT22;25777;47.824;18.982;2022-12-07T15:56:54;2.20;99.90
40077;DHT22;25777;47.824;18.982;2022-12-07T15:59:21;2.00;99.90
40077;DHT22;25777;47.824;18.982;2022-12-07T16:01:47;1.90;99.90
40077;DHT22;25777;47.824;18.982;2022-12-07T16:04:13;1.90;99.90
40077;DHT22;25777;47.824;18.982;2022-12-07T16:06:39;1.90;99.90
40077;DHT22;25777;47.824;18.982;2022-12-07T16:09:06;1.80;99.90
40077;DHT22;25777;47.824;18.982;2022-12-07T16:11:32;1.80;99.90
40077;DHT22;25777;47.824;18.982;2022-12-07T16:13:58;1.70;99.90
40077;DHT22;25777;47.824;18.982;2022-12-07T16:16:24;1.70;99.90
40077;DHT22;25777;47.824;18.982;2022-12-07T16:18:51;1.70;99.90
40077;DHT22;25777;47.824;18.982;2022-12-07T16:21:18;1.70;99.90
40077;DHT22;25777;47.824;18.982;2022-12-07T16:23:44;1.50;99.90
40077;DHT22;25777;47.824;18.982;2022-12-07T16:26:14;1.60;99.90
40077;DHT22;25777;47.824;18.982;2022-12-07T16:28:41;1.50;99.90
40077;DHT22;25777;47.824;18.982;2022-12-07T16:31:13;1.40;99.90
40077;DHT22;25777;47.824;18.982;2022-12-07T16:33:41;1.30;99.90
40077;DHT22;25777;47.824;18.982;2022-12-07T16:36:09;1.20;99.90
40077;DHT22;25777;47.824;18.982;2022-12-07T16:38:37;1.10;99.90
40077;DHT22;25777;47.824;18.982;2022-12-07T16:41:04;1.10;99.90
40077;DHT22;25777;47.824;18.982;2022-12-07T16:43:30;1.00;99.90
40077;DHT22;25777;47.824;18.982;2022-12-07T16:45:56;1.00;99.90
40077;DHT22;25777;47.824;18.982;2022-12-07T16:48:22;1.00;99.90
40077;DHT22;25777;47.824;18.982;2022-12-07T16:50:48;0.80;99.90
40077;DHT22;25777;47.824;18.982;2022-12-07T16:53:15;0.80;99.90
40077;DHT22;25777;47.824;18.982;2022-12-07T16:55:45;0.90;99.90
40077;DHT22;25777;47.824;18.982;2022-12-07T16:58:15;0.80;99.90
40077;DHT22;25777;47.824;18.982;2022-12-07T17:00:42;0.60;99.90
40077;DHT22;25777;47.824;18.982;2022-12-07T17:03:10;0.60;99.90
40077;DHT22;25777;47.824;18.982;2022-12-07T17:05:41;0.70;99.90
40077;DHT22;25777;47.824;18.982;2022-12-07T17:08:09;0.70;99.90
40077;DHT22;25777;47.824;18.982;2022-12-07T17:10:36;0.80;99.90
40077;DHT22;25777;47.824;18.982;2022-12-07T17:13:04;0.80;99.90
40077;DHT22;25777;47.824;18.982;2022-12-07T17:16:01;0.70;99.90
40077;DHT22;25777;47.824;18.982;2022-12-07T17:18:30;0.60;99.90
40077;DHT22;25777;47.824;18.982;2022-12-07T17:21:02;0.50;99.90
40077;DHT22;25777;47.824;18.982;2022-12-07T17:23:29;0.50;99.90
40077;DHT22;25777;47.824;18.982;2022-12-07T17:25:55;0.40;99.90
40077;DHT22;25777;47.824;18.982;2022-12-07T17:28:21;0.20;99.90
40077;DHT22;25777;47.824;18.982;2022-12-07T17:30:47;0.10;99.90